createdAt,value
2023-01-13T00:00:51.392Z,8.96
2023-01-13T00:03:24.029Z,9.04
2023-01-13T00:05:59.258Z,9.07
2023-01-13T00:08:32.603Z,8.98
2023-01-13T00:11:05.448Z,9.01
2023-01-13T00:13:38.046Z,8.98
2023-01-13T00:16:16.775Z,9.21
2023-01-13T00:18:49.903Z,9.29
2023-01-13T00:21:24.766Z,9.01
2023-01-13T00:23:57.353Z,9.12
2023-01-13T00:26:30.003Z,9.32
2023-01-13T00:29:03.638Z,9.18
2023-01-13T00:31:36.313Z,9.23
2023-01-13T00:34:09.163Z,9.23
2023-01-13T00:36:41.782Z,9.09
2023-01-13T00:39:14.367Z,8.98
2023-01-13T00:41:46.978Z,8.98
2023-01-13T00:44:19.582Z,8.82
2023-01-13T00:46:52.244Z,8.94
2023-01-13T00:49:25.002Z,8.83
2023-01-13T00:51:57.624Z,9.34
2023-01-13T00:54:30.243Z,9.05
2023-01-13T00:57:04.554Z,9.03
2023-01-13T00:59:37.176Z,9.13
2023-01-13T01:02:10.974Z,9.04
2023-01-13T01:04:43.672Z,8.94
2023-01-13T01:07:16.299Z,9.37
2023-01-13T01:09:49.759Z,9.12
2023-01-13T01:12:22.392Z,9.05
2023-01-13T01:14:54.982Z,9.11
2023-01-13T01:17:28.196Z,9.01
2023-01-13T01:20:00.804Z,8.70
2023-01-13T01:22:33.443Z,8.88
2023-01-13T01:25:06.574Z,8.87
2023-01-13T01:27:39.181Z,9.01
2023-01-13T01:30:12.370Z,8.87
2023-01-13T01:32:45.003Z,8.92
2023-01-13T01:35:17.627Z,8.84
2023-01-13T01:37:50.766Z,8.92
2023-01-13T01:40:23.380Z,8.92
2023-01-13T01:42:56.023Z,8.92
2023-01-13T01:45:30.705Z,8.89
2023-01-13T01:48:07.123Z,8.84
2023-01-13T01:50:40.595Z,8.99
2023-01-13T01:53:19.291Z,9.16
2023-01-13T01:55:52.181Z,9.35
2023-01-13T01:58:30.851Z,9.12
2023-01-13T02:01:03.640Z,9.17
2023-01-13T02:03:44.061Z,9.10
2023-01-13T02:06:17.487Z,9.08
2023-01-13T02:08:52.079Z,9.12
2023-01-13T02:11:33.952Z,9.05
2023-01-13T02:14:06.609Z,9.27
2023-01-13T02:16:48.332Z,8.95
2023-01-13T02:19:47.623Z,9.04
2023-01-13T02:22:47.012Z,9.16
2023-01-13T02:25:38.301Z,9.10
2023-01-13T02:28:48.524Z,8.98
2023-01-13T02:31:21.594Z,9.11
2023-01-13T02:34:12.709Z,9.21
2023-01-13T02:37:07.187Z,9.27
2023-01-13T02:39:45.628Z,9.56
2023-01-13T02:42:26.991Z,9.17
2023-01-13T02:45:26.198Z,9.35
2023-01-13T02:48:04.772Z,9.26
2023-01-13T02:50:59.640Z,9.30
2023-01-13T02:53:41.456Z,9.13
2023-01-13T02:56:16.474Z,8.99
2023-01-13T02:58:50.301Z,8.90
2023-01-13T03:01:24.142Z,8.90
2023-01-13T03:03:56.894Z,9.11
2023-01-13T03:07:06.664Z,9.08
2023-01-13T03:09:56.750Z,9.03
2023-01-13T03:12:50.279Z,9.54
2023-01-13T03:15:43.601Z,8.82
2023-01-13T03:18:28.236Z,8.81
2023-01-13T03:21:19.356Z,8.66
2023-01-13T03:23:59.750Z,8.61
2023-01-13T03:26:51.064Z,8.40
2023-01-13T03:29:39.549Z,8.41
2023-01-13T03:32:21.154Z,8.25
2023-01-13T03:35:03.048Z,8.37
2023-01-13T03:37:42.009Z,8.37
2023-01-13T03:40:22.338Z,8.41
2023-01-13T03:43:04.214Z,8.32
2023-01-13T03:45:41.546Z,8.39
2023-01-13T03:48:19.624Z,8.46
2023-01-13T03:50:58.188Z,8.37
2023-01-13T03:53:38.854Z,8.49
2023-01-13T03:56:21.496Z,8.41
2023-01-13T03:58:55.008Z,8.43
2023-01-13T04:01:44.710Z,8.42
2023-01-13T04:04:26.493Z,8.10
2023-01-13T04:07:19.645Z,8.20
2023-01-13T04:10:03.663Z,8.36
2023-01-13T04:12:56.091Z,8.33
2023-01-13T04:15:41.149Z,8.46
2023-01-13T04:18:26.850Z,8.25
2023-01-13T04:21:01.660Z,8.18
2023-01-13T04:23:34.463Z,8.18
2023-01-13T04:26:07.070Z,8.22
2023-01-13T04:28:39.728Z,7.80
2023-01-13T04:31:12.418Z,7.80
2023-01-13T04:33:45.072Z,7.78
2023-01-13T04:36:17.685Z,7.78
2023-01-13T04:38:50.374Z,7.76
2023-01-13T04:41:23.013Z,7.95
2023-01-13T04:43:55.591Z,7.72
2023-01-13T04:46:28.235Z,7.85
2023-01-13T04:49:00.855Z,8.04
2023-01-13T04:51:33.482Z,8.03
2023-01-13T04:54:06.105Z,7.80
2023-01-13T04:56:38.725Z,7.89
2023-01-13T04:59:11.794Z,8.02
2023-01-13T05:01:44.509Z,7.95
2023-01-13T05:04:17.163Z,7.97
2023-01-13T05:06:49.816Z,7.63
2023-01-13T05:09:22.436Z,7.56
2023-01-13T05:11:55.059Z,7.92
2023-01-13T05:14:27.711Z,7.66
2023-01-13T05:17:00.654Z,7.92
2023-01-13T05:19:36.245Z,7.95
2023-01-13T05:22:08.841Z,7.76
2023-01-13T05:24:42.087Z,7.56
2023-01-13T05:27:14.742Z,7.63
2023-01-13T05:29:47.368Z,7.53
2023-01-13T05:32:20.258Z,7.31
2023-01-13T05:34:52.955Z,7.21
2023-01-13T05:37:25.571Z,7.35
2023-01-13T05:39:58.196Z,7.33
2023-01-13T05:42:30.790Z,7.20
2023-01-13T05:45:04.112Z,7.14
2023-01-13T05:47:37.081Z,7.18
2023-01-13T05:50:10.378Z,7.15
2023-01-13T05:52:43.282Z,7.15
2023-01-13T05:55:15.976Z,7.39
2023-01-13T05:57:48.546Z,7.28
2023-01-13T06:00:21.350Z,7.07
2023-01-13T06:02:54.028Z,7.03
2023-01-13T06:05:26.680Z,7.01
2023-01-13T06:08:00.252Z,7.01
2023-01-13T06:10:33.869Z,7.11
2023-01-13T06:13:07.239Z,6.96
2023-01-13T06:15:39.911Z,6.94
2023-01-13T06:18:12.503Z,7.13
2023-01-13T06:20:47.115Z,7.01
2023-01-13T06:23:20.088Z,6.99
2023-01-13T06:26:03.636Z,6.97
2023-01-13T06:28:36.527Z,6.95
2023-01-13T06:31:11.148Z,7.06
2023-01-13T06:33:53.347Z,6.92
2023-01-13T06:36:41.736Z,7.08
2023-01-13T06:39:21.001Z,7.06
2023-01-13T06:41:54.762Z,7.05
2023-01-13T06:44:28.935Z,7.11
2023-01-13T06:47:01.829Z,6.85
2023-01-13T06:49:34.504Z,6.74
2023-01-13T06:52:07.110Z,6.81
2023-01-13T06:54:39.770Z,6.75
2023-01-13T06:57:12.554Z,6.76
2023-01-13T06:59:45.143Z,6.76
2023-01-13T07:02:17.848Z,6.71
2023-01-13T07:04:50.558Z,6.81
2023-01-13T07:07:23.196Z,6.75
2023-01-13T07:09:55.764Z,6.79
2023-01-13T07:12:30.887Z,6.74
2023-01-13T07:15:03.752Z,6.85
2023-01-13T07:17:36.423Z,6.97
2023-01-13T07:20:09.864Z,7.24
2023-01-13T07:22:43.051Z,7.53
2023-01-13T07:25:15.723Z,7.02
2023-01-13T07:27:48.393Z,6.84
2023-01-13T07:30:20.990Z,6.87
2023-01-13T07:32:53.558Z,6.69
2023-01-13T07:35:26.165Z,6.83
2023-01-13T07:37:58.784Z,6.82
2023-01-13T07:40:31.489Z,6.83
2023-01-13T07:43:04.067Z,6.80
2023-01-13T07:45:36.716Z,6.78
2023-01-13T07:48:09.864Z,6.81
2023-01-13T07:50:44.159Z,6.85
2023-01-13T07:53:16.921Z,6.93
2023-01-13T07:55:49.541Z,6.96
2023-01-13T07:58:22.191Z,7.08
2023-01-13T08:00:55.965Z,7.12
2023-01-13T08:03:28.632Z,7.17
2023-01-13T08:06:02.351Z,7.08
2023-01-13T08:08:35.434Z,6.94
2023-01-13T08:11:08.813Z,6.79
2023-01-13T08:13:41.424Z,6.95
2023-01-13T08:16:15.568Z,7.02
2023-01-13T08:18:48.274Z,7.07
2023-01-13T08:21:20.939Z,7.25
2023-01-13T08:23:53.562Z,7.16
2023-01-13T08:26:26.221Z,7.19
2023-01-13T08:28:58.846Z,7.16
2023-01-13T08:31:31.452Z,7.22
2023-01-13T08:34:04.040Z,7.10
2023-01-13T08:36:36.741Z,7.09
2023-01-13T08:39:09.336Z,7.25
2023-01-13T08:41:43.480Z,7.34
2023-01-13T08:44:16.047Z,6.99
2023-01-13T08:46:48.731Z,7.00
2023-01-13T08:49:22.750Z,7.08
2023-01-13T08:51:55.389Z,6.94
2023-01-13T08:54:28.000Z,7.07
2023-01-13T08:57:00.670Z,7.10
2023-01-13T08:59:34.144Z,7.09
2023-01-13T09:02:14.492Z,7.30
2023-01-13T09:04:47.400Z,7.21
2023-01-13T09:07:20.284Z,7.00
2023-01-13T09:09:52.934Z,7.17
2023-01-13T09:12:25.517Z,7.19
2023-01-13T09:14:58.482Z,7.17
2023-01-13T09:17:31.066Z,7.29
2023-01-13T09:20:04.489Z,7.22
2023-01-13T09:22:37.083Z,7.41
2023-01-13T09:25:10.024Z,7.46
2023-01-13T09:27:42.668Z,7.63
2023-01-13T09:30:15.401Z,8.02
2023-01-13T09:32:48.025Z,9.09
2023-01-13T09:35:20.599Z,8.95
2023-01-13T09:37:54.005Z,8.81
2023-01-13T09:40:27.034Z,8.39
2023-01-13T09:43:16.209Z,7.97
2023-01-13T09:46:01.637Z,8.16
2023-01-13T09:48:39.557Z,7.86
2023-01-13T09:51:52.111Z,7.85
2023-01-13T09:54:44.302Z,8.41
2023-01-13T09:57:20.290Z,8.55
2023-01-13T09:59:52.900Z,9.09
2023-01-13T10:02:49.782Z,9.08
2023-01-13T10:05:48.573Z,9.27
2023-01-13T10:08:43.238Z,9.14
2023-01-13T10:11:22.000Z,8.87
2023-01-13T10:14:01.591Z,8.60
2023-01-13T10:17:01.858Z,8.67
2023-01-13T10:19:46.215Z,8.76
2023-01-13T10:22:25.373Z,8.95
2023-01-13T10:25:07.071Z,8.68
2023-01-13T10:27:41.225Z,8.78
2023-01-13T10:30:29.163Z,8.54
2023-01-13T10:33:16.627Z,8.38
2023-01-13T10:36:12.425Z,8.33
2023-01-13T10:38:47.706Z,8.13
2023-01-13T10:41:27.648Z,8.37
2023-01-13T10:44:09.353Z,8.55
2023-01-13T10:46:53.751Z,8.62
2023-01-13T10:49:36.306Z,10.72
2023-01-13T10:52:27.269Z,14.97
2023-01-13T10:55:00.709Z,15.05
2023-01-13T10:57:36.852Z,13.25
2023-01-13T11:00:26.966Z,11.83
2023-01-13T11:03:16.259Z,13.40
2023-01-13T11:06:00.273Z,12.22
2023-01-13T11:08:44.898Z,11.04
2023-01-13T11:11:43.464Z,10.85
2023-01-13T11:14:39.907Z,11.35
2023-01-13T11:17:49.146Z,12.05
2023-01-13T11:20:26.840Z,13.37
2023-01-13T11:23:19.796Z,12.24
2023-01-13T11:26:16.671Z,15.82
2023-01-13T11:29:17.560Z,12.12
2023-01-13T11:31:58.670Z,11.66
2023-01-13T11:34:39.110Z,10.66
2023-01-13T11:37:23.834Z,10.26
2023-01-13T11:40:27.319Z,10.15
2023-01-13T11:43:24.265Z,10.13
2023-01-13T11:46:00.149Z,10.59
2023-01-13T11:48:40.249Z,11.43
2023-01-13T11:51:24.285Z,10.78
2023-01-13T11:54:16.332Z,10.66
2023-01-13T11:57:06.922Z,10.50
2023-01-13T11:59:54.732Z,10.89
2023-01-13T12:02:30.233Z,10.51
2023-01-13T12:05:22.397Z,13.75
2023-01-13T12:08:13.602Z,14.94
2023-01-13T12:11:02.784Z,16.42
2023-01-13T12:14:24.673Z,17.56
2023-01-13T12:17:01.136Z,17.27
2023-01-13T12:19:33.971Z,16.40
2023-01-13T12:22:21.060Z,15.71
2023-01-13T12:25:20.477Z,12.86
2023-01-13T12:28:06.502Z,17.32
2023-01-13T12:30:57.812Z,12.90
2023-01-13T12:33:52.303Z,11.85
2023-01-13T12:36:46.114Z,11.53
2023-01-13T12:39:48.339Z,11.72
2023-01-13T12:42:45.973Z,17.12
2023-01-13T12:45:23.747Z,16.62
2023-01-13T12:47:57.592Z,13.85
2023-01-13T12:50:33.216Z,11.48
2023-01-13T12:53:34.924Z,11.18
2023-01-13T12:56:40.372Z,10.38
2023-01-13T12:59:19.888Z,10.23
2023-01-13T13:02:13.163Z,10.31
2023-01-13T13:04:49.860Z,10.45
2023-01-13T13:07:38.685Z,10.57
2023-01-13T13:10:23.767Z,10.58
2023-01-13T13:13:02.599Z,10.42
2023-01-13T13:15:36.251Z,11.21
2023-01-13T13:18:17.914Z,11.21
2023-01-13T13:21:08.868Z,11.36
2023-01-13T13:23:53.507Z,10.81
2023-01-13T13:26:41.528Z,10.59
2023-01-13T13:29:49.480Z,10.97
2023-01-13T13:32:39.432Z,10.90
2023-01-13T13:35:21.093Z,10.92
2023-01-13T13:38:25.075Z,11.22
2023-01-13T13:40:57.993Z,10.81
2023-01-13T13:43:40.982Z,11.05
2023-01-13T13:46:29.212Z,11.14
2023-01-13T13:49:01.827Z,12.07
2023-01-13T13:51:45.824Z,12.42
2023-01-13T13:54:22.515Z,11.66
2023-01-13T13:56:55.621Z,11.17
2023-01-13T13:59:29.088Z,10.42
2023-01-13T14:02:03.697Z,10.44
2023-01-13T14:04:38.223Z,13.47
2023-01-13T14:07:21.920Z,13.78
2023-01-13T14:09:55.055Z,15.28
2023-01-13T14:12:27.799Z,15.33
2023-01-13T14:15:00.419Z,15.60
2023-01-13T14:17:34.733Z,12.14
2023-01-13T14:20:18.228Z,13.31
2023-01-13T14:22:53.777Z,14.21
2023-01-13T14:25:36.665Z,13.71
2023-01-13T14:28:26.681Z,13.85
2023-01-13T14:31:00.949Z,13.24
2023-01-13T14:33:39.374Z,13.09
2023-01-13T14:36:16.643Z,11.44
2023-01-13T14:39:09.092Z,10.76
2023-01-13T14:41:41.624Z,10.59
2023-01-13T14:44:33.300Z,10.69
2023-01-13T14:47:28.058Z,10.34
2023-01-13T14:50:06.015Z,10.01
2023-01-13T14:52:50.974Z,10.00
2023-01-13T14:55:36.842Z,9.96
2023-01-13T14:58:21.486Z,10.05
2023-01-13T15:01:29.569Z,9.91
2023-01-13T15:04:31.292Z,10.07
2023-01-13T15:07:04.482Z,9.88
2023-01-13T15:09:42.534Z,10.24
2023-01-13T15:12:40.648Z,10.18
2023-01-13T15:15:29.465Z,10.48
2023-01-13T15:18:12.265Z,10.59
2023-01-13T15:20:45.476Z,10.35
2023-01-13T15:23:20.030Z,10.06
2023-01-13T15:25:52.790Z,10.50
2023-01-13T15:28:26.998Z,10.51
2023-01-13T15:30:59.579Z,10.53
2023-01-13T15:33:32.205Z,10.61
2023-01-13T15:36:16.537Z,10.21
2023-01-13T15:38:49.820Z,10.74
2023-01-13T15:41:22.523Z,10.38
2023-01-13T15:43:55.131Z,10.22
2023-01-13T15:46:27.863Z,10.29
2023-01-13T15:49:04.843Z,9.94
2023-01-13T15:51:37.391Z,10.32
2023-01-13T15:54:09.965Z,10.36
2023-01-13T15:56:42.721Z,10.09
2023-01-13T15:59:24.067Z,10.02
2023-01-13T16:01:56.637Z,10.34
2023-01-13T16:04:29.200Z,10.62
2023-01-13T16:07:01.833Z,10.19
2023-01-13T16:09:34.437Z,9.96
2023-01-13T16:12:07.137Z,9.86
2023-01-13T16:14:40.274Z,10.00
2023-01-13T16:17:14.776Z,9.99
2023-01-13T16:19:48.034Z,10.01
2023-01-13T16:22:20.887Z,10.29
2023-01-13T16:24:53.588Z,10.06
2023-01-13T16:27:26.233Z,9.98
2023-01-13T16:29:58.884Z,9.96
2023-01-13T16:32:31.481Z,9.90
2023-01-13T16:35:04.289Z,10.49
2023-01-13T16:37:38.079Z,10.76
2023-01-13T16:40:22.839Z,10.34
2023-01-13T16:42:56.827Z,10.44
2023-01-13T16:45:33.476Z,10.15
2023-01-13T16:48:06.159Z,9.95
2023-01-13T16:50:42.003Z,9.83
2023-01-13T16:53:14.579Z,9.96
2023-01-13T16:55:47.164Z,10.03
2023-01-13T16:58:20.709Z,10.03
2023-01-13T17:00:53.354Z,9.71
2023-01-13T17:03:26.036Z,9.79
2023-01-13T17:06:01.878Z,9.73
2023-01-13T17:08:34.490Z,9.77
2023-01-13T17:11:07.077Z,9.72
2023-01-13T17:13:41.041Z,9.66
2023-01-13T17:16:22.220Z,9.58
2023-01-13T17:18:54.885Z,9.73
2023-01-13T17:21:27.565Z,9.94
2023-01-13T17:24:00.178Z,9.67
2023-01-13T17:26:43.201Z,9.48
2023-01-13T17:29:22.348Z,9.68
2023-01-13T17:31:55.342Z,9.68
2023-01-13T17:34:28.263Z,9.64
2023-01-13T17:37:00.917Z,9.36
2023-01-13T17:39:33.482Z,9.41
2023-01-13T17:42:06.930Z,9.45
2023-01-13T17:44:39.796Z,9.24
2023-01-13T17:47:12.553Z,9.37
2023-01-13T17:49:45.189Z,9.54
2023-01-13T17:52:17.771Z,9.55
2023-01-13T17:54:50.364Z,9.40
2023-01-13T17:57:25.921Z,9.37
2023-01-13T17:59:58.676Z,9.29
2023-01-13T18:02:31.408Z,9.28
2023-01-13T18:05:06.726Z,9.38
2023-01-13T18:07:39.653Z,9.74
2023-01-13T18:10:12.231Z,9.79
2023-01-13T18:12:44.839Z,9.96
2023-01-13T18:15:17.443Z,9.98
2023-01-13T18:17:50.258Z,10.30
2023-01-13T18:20:23.239Z,10.10
2023-01-13T18:22:55.869Z,10.04
2023-01-13T18:25:28.440Z,9.82
2023-01-13T18:28:01.039Z,9.69
2023-01-13T18:30:33.589Z,9.90
2023-01-13T18:33:06.249Z,9.76
2023-01-13T18:35:39.342Z,9.95
2023-01-13T18:38:11.947Z,10.18
2023-01-13T18:40:44.521Z,10.05
2023-01-13T18:43:17.201Z,9.90
2023-01-13T18:45:50.928Z,9.65
2023-01-13T18:48:23.649Z,9.76
2023-01-13T18:50:56.242Z,9.71
2023-01-13T18:53:29.221Z,9.76
2023-01-13T18:56:04.168Z,10.04
2023-01-13T18:58:39.461Z,10.02
2023-01-13T19:01:12.493Z,10.39
2023-01-13T19:03:45.304Z,10.17
2023-01-13T19:06:17.991Z,9.97
2023-01-13T19:08:50.876Z,9.94
2023-01-13T19:11:25.217Z,9.81
2023-01-13T19:13:57.783Z,9.92
2023-01-13T19:16:30.491Z,10.21
2023-01-13T19:19:03.166Z,10.07
2023-01-13T19:21:35.763Z,9.92
2023-01-13T19:24:08.557Z,9.51
2023-01-13T19:26:41.116Z,9.96
2023-01-13T19:29:13.724Z,9.78
2023-01-13T19:31:46.602Z,9.06
2023-01-13T19:34:20.184Z,8.71
2023-01-13T19:36:53.563Z,8.53
2023-01-13T19:39:26.468Z,8.26
2023-01-13T19:41:59.293Z,8.44
2023-01-13T19:44:31.908Z,8.29
2023-01-13T19:47:04.687Z,8.35
2023-01-13T19:49:37.306Z,8.30
2023-01-13T19:52:11.451Z,8.92
2023-01-13T19:54:45.312Z,8.73
2023-01-13T19:57:26.566Z,8.34
2023-01-13T19:59:59.183Z,8.50
2023-01-13T20:02:33.318Z,9.27
2023-01-13T20:05:07.284Z,8.75
2023-01-13T20:07:39.907Z,8.81
2023-01-13T20:10:12.719Z,9.07
2023-01-13T20:12:45.392Z,9.54
2023-01-13T20:15:18.019Z,9.29
2023-01-13T20:17:50.975Z,9.66
2023-01-13T20:20:24.805Z,9.26
2023-01-13T20:22:57.506Z,9.02
2023-01-13T20:25:30.178Z,9.14
2023-01-13T20:28:03.055Z,9.57
2023-01-13T20:30:35.722Z,9.13
2023-01-13T20:33:08.386Z,8.97
2023-01-13T20:35:42.080Z,8.86
2023-01-13T20:38:14.771Z,9.25
2023-01-13T20:40:47.480Z,8.74
2023-01-13T20:43:20.167Z,8.73
2023-01-13T20:45:53.559Z,8.78
2023-01-13T20:48:26.232Z,8.86
2023-01-13T20:50:58.933Z,8.80
2023-01-13T20:53:31.615Z,9.00
2023-01-13T20:56:08.641Z,8.89
2023-01-13T20:58:41.252Z,8.72
2023-01-13T21:01:14.088Z,9.40
2023-01-13T21:03:46.901Z,9.61
2023-01-13T21:06:19.565Z,8.94
2023-01-13T21:08:53.204Z,8.52
2023-01-13T21:11:28.162Z,8.47
2023-01-13T21:14:00.910Z,8.56
2023-01-13T21:16:33.608Z,8.38
2023-01-13T21:19:06.268Z,8.26
2023-01-13T21:21:38.888Z,8.07
2023-01-13T21:24:11.587Z,8.39
2023-01-13T21:26:44.321Z,8.76
2023-01-13T21:29:16.975Z,8.81
2023-01-13T21:31:49.767Z,8.82
2023-01-13T21:34:22.455Z,9.07
2023-01-13T21:36:55.144Z,9.00
2023-01-13T21:39:27.905Z,9.62
2023-01-13T21:42:00.619Z,9.37
2023-01-13T21:44:33.338Z,9.33
2023-01-13T21:47:18.393Z,8.87
2023-01-13T21:49:51.147Z,9.68
2023-01-13T21:52:23.782Z,9.66
2023-01-13T21:54:56.530Z,9.75
2023-01-13T21:57:29.158Z,9.68
2023-01-13T22:00:01.914Z,9.11
2023-01-13T22:02:34.679Z,9.59
2023-01-13T22:05:09.329Z,9.35
2023-01-13T22:07:42.316Z,8.95
2023-01-13T22:10:26.213Z,8.85
2023-01-13T22:13:01.650Z,8.99
2023-01-13T22:15:34.296Z,9.13
2023-01-13T22:18:07.100Z,9.04
2023-01-13T22:20:39.749Z,9.08
2023-01-13T22:23:12.474Z,9.65
2023-01-13T22:25:45.370Z,9.14
2023-01-13T22:28:18.020Z,9.32
2023-01-13T22:30:50.685Z,8.94
2023-01-13T22:33:23.342Z,8.86
2023-01-13T22:35:56.126Z,9.33
2023-01-13T22:38:29.046Z,9.41
2023-01-13T22:41:05.380Z,8.64
2023-01-13T22:43:38.408Z,8.40
2023-01-13T22:46:12.714Z,8.32
2023-01-13T22:48:45.466Z,8.19
2023-01-13T22:51:18.095Z,8.27
2023-01-13T22:53:50.732Z,8.34
2023-01-13T22:56:25.203Z,8.01
2023-01-13T22:59:00.867Z,8.12
2023-01-13T23:01:35.066Z,8.05
2023-01-13T23:04:07.961Z,8.14
2023-01-13T23:06:40.858Z,8.20
2023-01-13T23:09:13.540Z,8.12
2023-01-13T23:11:47.858Z,8.27
2023-01-13T23:14:20.588Z,8.16
2023-01-13T23:16:53.396Z,8.08
2023-01-13T23:19:26.104Z,8.38
2023-01-13T23:21:58.775Z,8.14
2023-01-13T23:24:31.477Z,8.05
2023-01-13T23:27:04.140Z,8.01
2023-01-13T23:29:36.799Z,7.89
2023-01-13T23:32:09.417Z,7.93
2023-01-13T23:34:42.064Z,7.81
2023-01-13T23:37:14.683Z,8.05
2023-01-13T23:39:47.415Z,8.22
2023-01-13T23:42:20.181Z,7.93
2023-01-13T23:44:52.782Z,7.78
2023-01-13T23:47:25.435Z,7.57
2023-01-13T23:49:58.115Z,7.75
2023-01-13T23:52:30.769Z,7.73
2023-01-13T23:55:03.618Z,7.82
2023-01-13T23:57:36.275Z,7.98
